Eltopia, Washington
Current Conditions -  °F | °C
As of 6:53 PM on Sunday 23 Nov 2014 (Local Time) from KPSC Reporting Station
Clear Clear  
Wind Chill: 46°   Ceiling: Unl
Heat Index: 46°   Visibility: 10mi
Dew Point: 36°   Wind: 0mph
Humidity: 68%   Direction: NA
Pressure: 30.18"   Gusts: NA
Location:  46.46°N, 119.02°W
Report Text: KPSC 240253Z 00000KT 10SM CLR 08/02 A3018 RMK AO2 SLP223 60000 T00780022 51017
Loading
Personal Weather Stations






























Interactive Weather Map New forecast layout! Learn more

10-Day Weather Forecast

Advertisements
Track Severe Weather on mobile